Terminal Aerodrome Forecast
Issued by NWS

Home | Current Version | Previous Version | Text Only | Print | Product List | Glossary On
Versions: 1 2 3 4 5 6 7 8 9 10 11 12 13 14 15 16 17
000
FTUS41 KBTV 021200 AAA
TAFMPV
TAF AMD
KMPV 021222Z 0212/0312 00000KT P6SM BKN007 OVC015
      TEMPO 0214/0216 BKN012 OVC028
     FM021600 VRB03KT P6SM BKN040
     FM030200 13004KT 6SM BR SCT020 SCT200=

USA.gov is the U.S. government's official web portal to all federal, state and local government web resources and services.